Time;durP1;ratioP1;P1;durP2;ratioP2;P2;SDS_P1;SDS_P2;PMS_P1;PMS_P2;Temp;Humidity;BMP_temperature;BMP_pressure;BME280_temperature;BME280_humidity;BME280_pressure;Samples;Min_cycle;Max_cycle;Signal;HPM_P1;HPM_P2
2023/05/16 00:00:44;;;;;;;5.65;4.57;;;;;;;-140.66;100.00;55571.53;5114337;28;20027;-76
2023/05/16 00:03:30;;;;;;;8.15;4.70;;;;;;;-140.66;100.00;55571.53;5116192;28;20028;-76
2023/05/16 00:06:15;;;;;;;6.93;4.57;;;;;;;-140.66;100.00;55571.53;5119316;28;20413;-75
2023/05/16 00:09:01;;;;;;;6.72;4.35;;;;;;;-140.66;100.00;55571.53;5119129;28;20463;-75
2023/05/16 00:11:47;;;;;;;5.47;4.25;;;;;;;-140.66;100.00;55571.53;5118952;28;20101;-76
2023/05/16 00:14:34;;;;;;;4.93;4.20;;;;;;;-140.66;100.00;55571.53;5104022;28;20020;-76
2023/05/16 00:17:20;;;;;;;8.20;4.72;;;;;;;-140.66;100.00;55571.53;5119206;28;20028;-75
2023/05/16 00:20:07;;;;;;;6.50;4.55;;;;;;;-140.66;100.00;55571.53;5118777;28;20035;-76
2023/05/16 00:22:54;;;;;;;5.85;4.20;;;;;;;-140.66;100.00;55571.53;5131758;27;20447;-76
2023/05/16 00:25:40;;;;;;;4.90;4.40;;;;;;;-140.66;100.00;55571.53;5102848;28;20036;-75
2023/05/16 00:28:25;;;;;;;5.25;4.38;;;;;;;-140.66;100.00;55571.53;5118355;28;20128;-75
2023/05/16 00:31:11;;;;;;;9.45;4.47;;;;;;;-140.66;100.00;55571.53;5131733;27;20038;-75
2023/05/16 00:33:57;;;;;;;6.35;4.43;;;;;;;-140.66;100.00;55571.53;5118974;28;20016;-76
2023/05/16 00:36:42;;;;;;;5.40;4.03;;;;;;;-140.66;100.00;55571.53;5117845;28;20042;-76
2023/05/16 00:39:29;;;;;;;6.90;4.22;;;;;;;-140.66;100.00;55571.53;5103278;28;20074;-76
2023/05/16 00:42:18;;;;;;;5.60;4.55;;;;;;;-140.66;100.00;55571.53;5118120;28;20187;-77
2023/05/16 00:45:05;;;;;;;7.35;4.60;;;;;;;-140.66;100.00;55571.53;5118329;28;20039;-77
2023/05/16 00:47:51;;;;;;;6.05;4.57;;;;;;;-140.66;100.00;55571.53;5118286;28;20069;-76
2023/05/16 00:50:36;;;;;;;8.88;5.05;;;;;;;-140.66;100.00;55571.53;5117953;28;20084;-76
2023/05/16 00:53:24;;;;;;;6.03;4.53;;;;;;;-140.66;100.00;55571.53;5117753;28;20084;-76
2023/05/16 00:56:09;;;;;;;8.18;4.68;;;;;;;-140.66;100.00;55571.53;5118222;28;20496;-76
2023/05/16 00:58:56;;;;;;;8.15;4.65;;;;;;;-140.66;100.00;55571.53;5103049;28;20096;-76
2023/05/16 01:01:44;;;;;;;7.68;4.63;;;;;;;-140.66;100.00;55571.53;5117322;28;20051;-76
2023/05/16 01:04:31;;;;;;;7.72;5.30;;;;;;;-140.66;100.00;55571.53;5117365;28;20083;-76
2023/05/16 01:07:17;;;;;;;5.82;4.53;;;;;;;-140.66;100.00;55571.53;5117960;28;20034;-76
2023/05/16 01:10:04;;;;;;;9.32;4.68;;;;;;;-140.66;100.00;55571.53;5117428;28;20051;-76
2023/05/16 01:13:17;;;;;;;7.45;4.78;;;;;;;-140.66;100.00;55571.53;5102373;28;20043;-76
2023/05/16 01:16:15;;;;;;;7.00;4.65;;;;;;;-140.66;100.00;55571.53;5117293;28;20096;-76
2023/05/16 01:19:31;;;;;;;5.82;4.63;;;;;;;-140.66;100.00;55571.53;5116875;28;20035;-77
2023/05/16 01:22:46;;;;;;;8.45;4.82;;;;;;;-140.66;100.00;55571.53;5117260;28;20147;-77
2023/05/16 01:25:46;;;;;;;7.57;4.63;;;;;;;-140.66;100.00;55571.53;5117501;28;20027;-77
2023/05/16 01:28:33;;;;;;;8.77;4.93;;;;;;;-140.66;100.00;55571.53;5116715;28;20058;-77
2023/05/16 01:31:22;;;;;;;6.60;5.15;;;;;;;-140.66;100.00;55571.53;5117230;28;20059;-76
2023/05/16 01:34:08;;;;;;;6.20;5.13;;;;;;;-140.66;100.00;55571.53;5101904;28;20024;-76
2023/05/16 01:37:20;;;;;;;7.78;4.90;;;;;;;-140.66;100.00;55571.53;5101871;28;20039;-77
2023/05/16 01:40:15;;;;;;;9.02;4.82;;;;;;;-140.66;100.00;55571.53;5116183;28;20023;-77
2023/05/16 01:43:07;;;;;;;6.32;4.60;;;;;;;-140.66;100.00;55571.53;5103211;28;20036;-77
2023/05/16 01:46:00;;;;;;;9.55;4.80;;;;;;;-140.66;100.00;55571.53;5117308;28;20059;-77
2023/05/16 01:48:54;;;;;;;6.72;4.60;;;;;;;-140.66;100.00;55571.53;5116929;28;20027;-77
2023/05/16 01:51:40;;;;;;;7.43;4.47;;;;;;;-140.66;100.00;55571.53;5133519;28;20045;-76
2023/05/16 01:54:30;;;;;;;10.48;4.93;;;;;;;-140.66;100.00;55571.53;5124456;28;20074;-77
2023/05/16 01:57:16;;;;;;;7.88;5.10;;;;;;;-140.66;100.00;55571.53;5116666;28;20027;-77
2023/05/16 02:00:03;;;;;;;6.00;4.93;;;;;;;-140.66;100.00;55571.53;5130009;27;20019;-78
2023/05/16 02:02:49;;;;;;;5.85;4.60;;;;;;;-140.66;100.00;55571.53;5117302;28;20417;-78
2023/05/16 02:05:35;;;;;;;8.80;5.30;;;;;;;-140.66;100.00;55571.53;5101818;28;20032;-77
2023/05/16 02:08:21;;;;;;;8.88;5.07;;;;;;;-140.66;100.00;55571.53;5116163;28;20351;-76
2023/05/16 02:11:06;;;;;;;5.80;4.38;;;;;;;-140.66;100.00;55571.53;5119848;28;20011;-74
2023/05/16 02:13:52;;;;;;;8.20;4.57;;;;;;;-140.66;100.00;55571.53;5118133;28;20016;-77
2023/05/16 02:16:38;;;;;;;6.00;4.38;;;;;;;-140.66;100.00;55571.53;5101206;28;20023;-77
2023/05/16 02:19:23;;;;;;;7.18;4.80;;;;;;;-140.66;100.00;55571.53;5116224;28;20518;-77
2023/05/16 02:22:09;;;;;;;6.85;4.78;;;;;;;-140.66;100.00;55571.53;5116857;28;20092;-77
2023/05/16 02:24:55;;;;;;;8.88;5.32;;;;;;;-140.66;100.00;55571.53;5116689;28;20111;-76
2023/05/16 02:27:42;;;;;;;7.32;5.30;;;;;;;-140.66;100.00;55571.53;5116243;28;20174;-77
2023/05/16 02:30:27;;;;;;;7.65;4.85;;;;;;;-140.66;100.00;55571.53;5116758;27;20051;-77
2023/05/16 02:33:14;;;;;;;8.30;5.00;;;;;;;-140.66;100.00;55571.53;5101462;28;20044;-76
2023/05/16 02:36:00;;;;;;;6.95;4.57;;;;;;;-140.66;100.00;55571.53;5100823;28;20023;-78
2023/05/16 02:38:46;;;;;;;6.57;5.20;;;;;;;-140.66;100.00;55571.53;5101120;28;20035;-77
2023/05/16 02:41:32;;;;;;;10.43;5.18;;;;;;;-140.66;100.00;55571.53;5115770;28;20027;-76
2023/05/16 02:44:17;;;;;;;9.93;5.20;;;;;;;-140.66;100.00;55571.53;5100704;28;20087;-76
2023/05/16 02:47:03;;;;;;;9.85;5.05;;;;;;;-140.66;100.00;55571.53;5116075;28;20023;-77
2023/05/16 02:49:51;;;;;;;7.90;4.88;;;;;;;-140.66;100.00;55571.53;5116743;27;20408;-77
2023/05/16 02:52:36;;;;;;;9.95;5.60;;;;;;;-140.66;100.00;55571.53;5115826;28;20038;-77
2023/05/16 02:55:22;;;;;;;11.75;6.32;;;;;;;-140.66;100.00;55571.53;5117814;27;20047;-76
2023/05/16 02:58:08;;;;;;;14.00;5.80;;;;;;;-140.66;100.00;55571.53;5100237;28;20039;-76
2023/05/16 03:00:54;;;;;;;12.50;5.65;;;;;;;-140.66;100.00;55571.53;5115374;28;20468;-76
2023/05/16 03:03:39;;;;;;;7.75;5.82;;;;;;;-140.66;100.00;55571.53;5100192;28;20499;-77
2023/05/16 03:06:25;;;;;;;10.20;5.75;;;;;;;-140.66;100.00;55571.53;5101335;28;20383;-77
2023/05/16 03:09:11;;;;;;;8.30;5.82;;;;;;;-140.66;100.00;55571.53;5100455;28;20019;-77
2023/05/16 03:11:58;;;;;;;10.77;6.22;;;;;;;-140.66;100.00;55571.53;5115697;28;20143;-77
2023/05/16 03:14:44;;;;;;;9.68;5.75;;;;;;;-140.66;100.00;55571.53;5115370;28;20373;-77
2023/05/16 03:17:29;;;;;;;9.05;6.03;;;;;;;-140.66;100.00;55571.53;5116040;28;20042;-78
2023/05/16 03:20:15;;;;;;;10.15;6.28;;;;;;;-140.66;100.00;55571.53;5099916;28;20024;-77
2023/05/16 03:23:01;;;;;;;11.45;6.05;;;;;;;-140.66;100.00;55571.53;5100034;28;20062;-78
2023/05/16 03:25:47;;;;;;;11.20;5.72;;;;;;;-140.66;100.00;55571.53;5115481;28;20111;-77
2023/05/16 03:28:33;;;;;;;10.00;5.85;;;;;;;-140.66;100.00;55571.53;5115125;28;20479;-77
2023/05/16 03:31:18;;;;;;;7.38;5.32;;;;;;;-140.66;100.00;55571.53;5128150;27;20107;-77
2023/05/16 03:34:04;;;;;;;9.95;5.95;;;;;;;-140.66;100.00;55571.53;5100548;28;20023;-76
2023/05/16 03:36:51;;;;;;;8.55;5.60;;;;;;;-140.66;100.00;55571.53;5115533;28;20023;-78
2023/05/16 03:39:36;;;;;;;7.82;5.40;;;;;;;-140.66;100.00;55571.53;5126892;28;20080;-77
2023/05/16 03:42:22;;;;;;;6.97;5.65;;;;;;;-140.66;100.00;55571.53;5115292;28;20019;-77
2023/05/16 03:45:08;;;;;;;6.57;5.00;;;;;;;-140.66;100.00;55571.53;5114553;28;20031;-77
2023/05/16 03:47:54;;;;;;;7.80;5.80;;;;;;;-140.66;100.00;55571.53;5115475;28;20028;-77
2023/05/16 03:50:40;;;;;;;11.32;6.40;;;;;;;-140.66;100.00;55571.53;5114459;28;20168;-78
2023/05/16 03:53:25;;;;;;;8.32;5.47;;;;;;;-140.66;100.00;55571.53;5128243;28;20023;-78
2023/05/16 03:56:11;;;;;;;7.95;5.47;;;;;;;-140.66;100.00;55571.53;5115191;28;20106;-77
2023/05/16 03:58:57;;;;;;;12.65;6.00;;;;;;;-140.66;100.00;55571.53;5114356;28;20027;-77
2023/05/16 04:01:43;;;;;;;9.55;5.55;;;;;;;-140.66;100.00;55571.53;5115035;28;20035;-77
2023/05/16 04:04:29;;;;;;;13.07;6.20;;;;;;;-140.66;100.00;55571.53;5114821;28;20050;-75
2023/05/16 04:07:14;;;;;;;8.43;5.68;;;;;;;-140.66;100.00;55571.53;5115199;28;20351;-76
2023/05/16 04:10:01;;;;;;;8.48;6.13;;;;;;;-140.66;100.00;55571.53;5099456;28;20030;-74
2023/05/16 04:12:46;;;;;;;7.05;5.78;;;;;;;-140.66;100.00;55571.53;5099288;28;20039;-78
2023/05/16 04:15:32;;;;;;;9.98;5.65;;;;;;;-140.66;100.00;55571.53;5099690;28;20030;-75
2023/05/16 04:18:18;;;;;;;8.77;5.57;;;;;;;-140.66;100.00;55571.53;5114948;28;20127;-76
2023/05/16 04:21:04;;;;;;;7.05;5.65;;;;;;;-140.66;100.00;55571.53;5114656;28;20128;-76
2023/05/16 04:23:50;;;;;;;13.70;6.53;;;;;;;-140.66;100.00;55571.53;5115140;28;20363;-76
2023/05/16 04:26:36;;;;;;;13.00;6.03;;;;;;;-140.66;100.00;55571.53;5114534;28;20031;-76
2023/05/16 04:29:22;;;;;;;12.18;6.70;;;;;;;-140.66;100.00;55571.53;5115191;28;20043;-78
2023/05/16 04:32:08;;;;;;;11.60;6.30;;;;;;;-140.66;100.00;55571.53;5146134;27;20047;-80
2023/05/16 04:34:54;;;;;;;12.13;6.50;;;;;;;-140.66;100.00;55571.53;5118035;28;20058;-78
2023/05/16 04:37:40;;;;;;;10.13;6.50;;;;;;;-140.66;100.00;55571.53;5115452;28;20026;-78
2023/05/16 04:40:26;;;;;;;8.48;6.10;;;;;;;-140.66;100.00;55571.53;5099272;28;20476;-79
2023/05/16 04:43:12;;;;;;;14.90;6.80;;;;;;;-140.66;100.00;55571.53;5099356;28;20043;-80
2023/05/16 04:45:58;;;;;;;10.63;6.20;;;;;;;-140.66;100.00;55571.53;5115195;28;20027;-79
2023/05/16 04:48:43;;;;;;;17.40;6.50;;;;;;;-140.66;100.00;55571.53;5100782;28;20563;-79
2023/05/16 04:51:31;;;;;;;14.38;7.07;;;;;;;-140.66;100.00;55571.53;5139222;28;20075;-79
2023/05/16 04:54:17;;;;;;;12.88;6.50;;;;;;;-140.66;100.00;55571.53;5132311;27;20039;-78
2023/05/16 04:57:03;;;;;;;14.63;7.35;;;;;;;-140.66;100.00;55571.53;5118042;28;20020;-79
2023/05/16 04:59:48;;;;;;;15.85;7.43;;;;;;;-140.66;100.00;55571.53;5117607;28;20023;-79
2023/05/16 05:02:34;;;;;;;18.63;7.72;;;;;;;-140.66;100.00;55571.53;5117865;28;20031;-80
2023/05/16 05:05:20;;;;;;;17.98;7.65;;;;;;;-140.66;100.00;55571.53;5117675;28;20351;-81
2023/05/16 05:08:06;;;;;;;18.83;7.32;;;;;;;-140.66;100.00;55571.53;5118128;28;20488;-81
2023/05/16 05:10:52;;;;;;;15.07;7.00;;;;;;;-140.66;100.00;55571.53;5117852;28;20023;-81
2023/05/16 05:13:37;;;;;;;18.77;6.80;;;;;;;-140.66;100.00;55571.53;5102350;28;20034;-81
2023/05/16 05:16:23;;;;;;;20.48;7.22;;;;;;;-140.66;100.00;55571.53;5102216;28;20050;-81
2023/05/16 05:19:09;;;;;;;23.48;7.18;;;;;;;-140.66;100.00;55571.53;5103833;28;20513;-81
2023/05/16 05:21:55;;;;;;;18.52;7.38;;;;;;;-140.66;100.00;55571.53;5117430;28;20042;-81
2023/05/16 05:24:41;;;;;;;15.20;7.00;;;;;;;-140.66;100.00;55571.53;5115985;28;20039;-80
2023/05/16 05:27:27;;;;;;;14.63;6.85;;;;;;;-140.66;100.00;55571.53;5116957;28;20043;-81
2023/05/16 05:30:13;;;;;;;16.95;6.82;;;;;;;-140.66;100.00;55571.53;5116960;28;20039;-82
2023/05/16 05:32:59;;;;;;;10.35;6.43;;;;;;;-140.66;100.00;55571.53;5117567;28;20052;-81
2023/05/16 05:35:44;;;;;;;16.25;6.85;;;;;;;-140.66;100.00;55571.53;5119467;27;20443;-82
2023/05/16 05:38:30;;;;;;;13.05;6.45;;;;;;;-140.66;100.00;55571.53;5117084;28;20115;-82
2023/05/16 05:41:16;;;;;;;10.07;5.90;;;;;;;-140.66;100.00;55571.53;5115801;28;20063;-82
2023/05/16 05:44:02;;;;;;;14.02;6.25;;;;;;;-140.66;100.00;55571.53;5116848;28;20034;-81
2023/05/16 05:46:47;;;;;;;10.55;6.15;;;;;;;-140.66;100.00;55571.53;5103021;28;20466;-82
2023/05/16 05:49:34;;;;;;;19.05;6.50;;;;;;;-140.66;100.00;55571.53;5102418;28;20088;-82
2023/05/16 05:52:20;;;;;;;9.73;5.88;;;;;;;-140.66;100.00;55571.53;5102728;28;20032;-82
2023/05/16 05:55:06;;;;;;;10.32;6.38;;;;;;;-140.66;100.00;55571.53;5116506;28;20023;-81
2023/05/16 05:57:52;;;;;;;12.50;6.32;;;;;;;-140.66;100.00;55571.53;5125898;28;20031;-78
2023/05/16 06:00:38;;;;;;;12.27;6.00;;;;;;;-140.66;100.00;55571.53;5116567;28;20023;-79
2023/05/16 06:03:24;;;;;;;10.82;6.22;;;;;;;-140.66;100.00;55571.53;5130678;27;20028;-81
2023/05/16 06:06:09;;;;;;;15.70;7.60;;;;;;;-140.66;100.00;55571.53;5117498;28;20423;-83
2023/05/16 06:08:55;;;;;;;10.57;5.53;;;;;;;-140.66;100.00;55571.53;5116761;28;20043;-82
2023/05/16 06:11:42;;;;;;;12.20;7.22;;;;;;;-140.66;100.00;55571.53;5116896;28;20076;-82
2023/05/16 06:14:27;;;;;;;12.77;6.15;;;;;;;-140.66;100.00;55571.53;5101799;28;20451;-83
2023/05/16 06:17:13;;;;;;;14.98;6.03;;;;;;;-140.66;100.00;55571.53;5117013;28;20560;-81
2023/05/16 06:19:59;;;;;;;10.48;5.07;;;;;;;-140.66;100.00;55571.53;5101122;28;20386;-82
2023/05/16 06:22:45;;;;;;;21.13;5.45;;;;;;;-140.66;100.00;55571.53;5115628;28;20347;-78
2023/05/16 06:25:30;;;;;;;12.65;5.93;;;;;;;-140.66;100.00;55571.53;5116678;28;20027;-82
2023/05/16 06:28:16;;;;;;;9.63;5.05;;;;;;;-140.66;100.00;55571.53;5116473;28;20044;-82
2023/05/16 06:31:02;;;;;;;11.02;5.57;;;;;;;-140.66;100.00;55571.53;5116288;28;20077;-83
2023/05/16 06:33:48;;;;;;;10.68;5.22;;;;;;;-140.66;100.00;55571.53;5101074;28;20027;-82
2023/05/16 06:36:34;;;;;;;10.98;5.90;;;;;;;-140.66;100.00;55571.53;5115940;28;20447;-82
2023/05/16 06:39:20;;;;;;;12.60;5.63;;;;;;;-140.66;100.00;55571.53;5115670;28;20035;-83
2023/05/16 06:42:05;;;;;;;13.48;5.60;;;;;;;-140.66;100.00;55571.53;5129330;27;20355;-83
2023/05/16 06:44:51;;;;;;;9.45;5.00;;;;;;;-140.66;100.00;55571.53;5116182;28;20055;-79
2023/05/16 06:47:37;;;;;;;11.20;5.10;;;;;;;-140.66;100.00;55571.53;5100961;28;20021;-82
2023/05/16 06:50:23;;;;;;;7.47;5.05;;;;;;;-140.66;100.00;55571.53;5115257;28;20055;-82
2023/05/16 06:53:10;;;;;;;30.13;6.82;;;;;;;-140.66;100.00;55571.53;5100607;28;20016;-81
2023/05/16 06:55:56;;;;;;;10.23;5.40;;;;;;;-140.66;100.00;55571.53;5129667;27;20020;-81
2023/05/16 06:58:43;;;;;;;10.50;5.10;;;;;;;-140.66;100.00;55571.53;5129903;27;20436;-82
2023/05/16 07:01:34;;;;;;;10.77;5.45;;;;;;;-140.66;100.00;55571.53;5125307;28;20073;-82
2023/05/16 07:04:20;;;;;;;7.97;5.40;;;;;;;-140.66;100.00;55571.53;5114956;28;20024;-77
2023/05/16 07:07:12;;;;;;;7.80;4.70;;;;;;;-140.66;100.00;55571.53;5140273;27;20020;-77
2023/05/16 07:09:58;;;;;;;10.85;5.28;;;;;;;-140.66;100.00;55571.53;5130362;27;20475;-77
2023/05/16 07:12:44;;;;;;;15.40;5.07;;;;;;;-140.66;100.00;55571.53;5115435;28;20027;-83
2023/05/16 07:15:33;;;;;;;6.55;5.10;;;;;;;-140.66;100.00;55571.53;5116356;28;20093;-84
2023/05/16 07:18:19;;;;;;;7.85;5.18;;;;;;;-140.66;100.00;55571.53;5115003;28;20106;-83
2023/05/16 07:21:04;;;;;;;7.90;4.68;;;;;;;-140.66;100.00;55571.53;5116019;28;20050;-83
2023/05/16 07:23:50;;;;;;;6.60;4.70;;;;;;;-140.66;100.00;55571.53;5111394;28;20023;-85
2023/05/16 07:26:36;;;;;;;23.70;6.30;;;;;;;-140.66;100.00;55571.53;5102015;28;20104;-82
2023/05/16 07:29:25;;;;;;;8.65;4.78;;;;;;;-140.66;100.00;55571.53;5115833;28;20471;-83
2023/05/16 07:32:15;;;;;;;7.63;4.88;;;;;;;-140.66;100.00;55571.53;5115813;28;20024;-83
2023/05/16 07:35:01;;;;;;;6.85;5.10;;;;;;;-140.66;100.00;55571.53;5115685;28;20020;-83
2023/05/16 07:37:47;;;;;;;9.30;4.65;;;;;;;-140.66;100.00;55571.53;5099453;28;20019;-82
2023/05/16 07:40:33;;;;;;;16.90;4.88;;;;;;;-140.66;100.00;55571.53;5115360;28;20088;-84
2023/05/16 07:43:18;;;;;;;7.82;4.53;;;;;;;-140.66;100.00;55571.53;5128384;28;20051;-77
2023/05/16 07:46:04;;;;;;;8.43;4.45;;;;;;;-140.66;100.00;55571.53;5115215;28;20038;-78
2023/05/16 07:48:50;;;;;;;10.68;4.40;;;;;;;-140.66;100.00;55571.53;5100361;28;20034;-78
2023/05/16 07:51:36;;;;;;;8.88;4.25;;;;;;;-140.66;100.00;55571.53;5100254;28;20454;-78
2023/05/16 07:54:22;;;;;;;24.48;5.38;;;;;;;-140.66;100.00;55571.53;5100074;28;20020;-78
2023/05/16 07:57:08;;;;;;;6.63;4.57;;;;;;;-140.66;100.00;55571.53;5114534;28;20443;-77
2023/05/16 07:59:54;;;;;;;6.93;4.25;;;;;;;-140.66;100.00;55571.53;5115039;28;20118;-77
2023/05/16 08:02:40;;;;;;;8.57;4.50;;;;;;;-140.66;100.00;55571.53;5115260;28;20038;-78
2023/05/16 08:05:26;;;;;;;7.70;4.30;;;;;;;-140.66;100.00;55571.53;5128150;28;20027;-77
2023/05/16 08:08:12;;;;;;;8.63;4.88;;;;;;;-140.66;100.00;55571.53;5115258;28;20030;-78
2023/05/16 08:10:58;;;;;;;8.60;4.80;;;;;;;-140.66;100.00;55571.53;5114995;28;20031;-79
2023/05/16 08:13:44;;;;;;;5.43;4.30;;;;;;;-140.66;100.00;55571.53;5114382;28;20035;-78
2023/05/16 08:16:30;;;;;;;8.98;4.68;;;;;;;-140.66;100.00;55571.53;5114929;28;20024;-78
2023/05/16 08:19:15;;;;;;;12.80;4.50;;;;;;;-140.66;100.00;55571.53;5099581;28;20031;-79
2023/05/16 08:22:02;;;;;;;6.90;4.95;;;;;;;-140.66;100.00;55571.53;5115416;28;20038;-78
2023/05/16 08:24:48;;;;;;;7.72;4.63;;;;;;;-140.66;100.00;55571.53;5102475;28;20059;-78
2023/05/16 08:27:33;;;;;;;10.82;4.65;;;;;;;-140.66;100.00;55571.53;5118450;28;20059;-78
2023/05/16 08:30:19;;;;;;;12.55;5.55;;;;;;;-140.66;100.00;55571.53;5103355;28;20028;-78
2023/05/16 08:33:05;;;;;;;6.97;4.75;;;;;;;-140.66;100.00;55571.53;5103260;28;20096;-78
2023/05/16 08:35:53;;;;;;;5.93;3.92;;;;;;;-140.66;100.00;55571.53;5103681;28;20367;-78
2023/05/16 08:38:39;;;;;;;7.15;4.60;;;;;;;-140.66;100.00;55571.53;5118753;28;20416;-78
2023/05/16 08:41:25;;;;;;;7.93;4.43;;;;;;;-140.66;100.00;55571.53;5118423;28;20027;-77
2023/05/16 08:44:12;;;;;;;11.18;4.10;;;;;;;-140.66;100.00;55571.53;5102823;28;20027;-77
2023/05/16 08:47:10;;;;;;;17.30;5.45;;;;;;;-140.66;100.00;55571.53;5118333;28;20064;-79
2023/05/16 08:49:57;;;;;;;10.20;4.70;;;;;;;-140.66;100.00;55571.53;5106122;28;20382;-78
2023/05/16 08:52:46;;;;;;;10.18;5.00;;;;;;;-140.66;100.00;55571.53;5118687;28;20035;-79
2023/05/16 08:55:35;;;;;;;17.10;5.13;;;;;;;-140.66;100.00;55571.53;5118817;28;20016;-78
2023/05/16 08:58:21;;;;;;;19.88;5.22;;;;;;;-140.66;100.00;55571.53;5103078;28;20321;-79
2023/05/16 09:01:08;;;;;;;6.50;4.57;;;;;;;-140.66;100.00;55571.53;5120536;28;20454;-78
2023/05/16 09:03:55;;;;;;;10.13;4.97;;;;;;;-140.66;100.00;55571.53;5103438;28;20036;-78
2023/05/16 09:06:41;;;;;;;17.55;5.72;;;;;;;-140.66;100.00;55571.53;5130976;27;20422;-78
2023/05/16 09:09:26;;;;;;;12.57;5.65;;;;;;;-140.66;100.00;55571.53;5117120;28;20024;-78
2023/05/16 09:12:12;;;;;;;11.93;4.90;;;;;;;-140.66;100.00;55571.53;5118235;28;20031;-79
2023/05/16 09:15:01;;;;;;;12.98;5.50;;;;;;;-140.66;100.00;55571.53;5117618;28;20028;-78
2023/05/16 09:17:47;;;;;;;8.95;5.13;;;;;;;-140.66;100.00;55571.53;5103134;28;20043;-78
2023/05/16 09:20:34;;;;;;;10.75;5.57;;;;;;;-140.66;100.00;55571.53;5118673;28;20088;-83
2023/05/16 09:23:24;;;;;;;12.80;5.15;;;;;;;-140.66;100.00;55571.53;5103841;28;20031;-83
2023/05/16 09:26:10;;;;;;;11.13;5.47;;;;;;;-140.66;100.00;55571.53;5104212;28;20085;-83
2023/05/16 09:28:57;;;;;;;12.45;5.57;;;;;;;-140.66;100.00;55571.53;5117197;28;20047;-82
2023/05/16 09:31:42;;;;;;;11.13;5.82;;;;;;;-140.66;100.00;55571.53;5118251;28;20019;-82
2023/05/16 09:34:28;;;;;;;12.23;4.97;;;;;;;-140.66;100.00;55571.53;5118274;28;20045;-82
2023/05/16 09:37:15;;;;;;;8.93;4.80;;;;;;;-140.66;100.00;55571.53;5132927;27;20023;-83
2023/05/16 09:40:02;;;;;;;12.27;6.68;;;;;;;-140.66;100.00;55571.53;5137501;28;20087;-82
2023/05/16 09:43:02;;;;;;;11.95;6.05;;;;;;;-140.66;100.00;55571.53;5118347;28;20028;-83
2023/05/16 09:45:48;;;;;;;19.30;6.80;;;;;;;-140.66;100.00;55571.53;5102477;28;20031;-83
2023/05/16 09:48:34;;;;;;;16.17;5.82;;;;;;;-140.66;100.00;55571.53;5102938;28;20023;-83
2023/05/16 09:51:23;;;;;;;12.52;4.75;;;;;;;-140.66;100.00;55571.53;5101867;28;20069;-82
2023/05/16 09:54:08;;;;;;;12.52;4.60;;;;;;;-140.66;100.00;55571.53;5101742;28;20132;-82
2023/05/16 09:56:54;;;;;;;15.00;5.40;;;;;;;-140.66;100.00;55571.53;5121191;28;20035;-82
2023/05/16 09:59:40;;;;;;;10.57;4.68;;;;;;;-140.66;100.00;55571.53;5131926;28;20032;-82
2023/05/16 10:02:26;;;;;;;13.13;4.80;;;;;;;-140.66;100.00;55571.53;5116891;28;20031;-82
2023/05/16 10:05:12;;;;;;;11.70;4.53;;;;;;;-140.66;100.00;55571.53;5118157;28;20023;-84
2023/05/16 10:07:59;;;;;;;12.38;4.07;;;;;;;-140.66;100.00;55571.53;5101657;28;20371;-83
2023/05/16 10:10:46;;;;;;;14.73;4.60;;;;;;;-140.66;100.00;55571.53;5101776;28;20073;-82
2023/05/16 10:13:34;;;;;;;16.27;4.30;;;;;;;-140.66;100.00;55571.53;5116561;28;20431;-82
2023/05/16 10:16:22;;;;;;;10.32;4.40;;;;;;;-140.66;100.00;55571.53;5101349;28;20036;-82
2023/05/16 10:19:10;;;;;;;15.75;4.40;;;;;;;-140.66;100.00;55571.53;5129607;27;20034;-82
2023/05/16 10:22:03;;;;;;;15.50;5.55;;;;;;;-140.66;100.00;55571.53;5102179;28;20037;-83
2023/05/16 10:25:16;;;;;;;17.02;4.65;;;;;;;-140.66;100.00;55571.53;5117388;28;20019;-83
2023/05/16 10:28:03;;;;;;;18.65;4.55;;;;;;;-140.66;100.00;55571.53;5101846;28;20048;-83
2023/05/16 10:30:50;;;;;;;13.98;4.55;;;;;;;-140.66;100.00;55571.53;5101332;28;20028;-82
2023/05/16 10:33:56;;;;;;;15.95;4.82;;;;;;;-140.66;100.00;55571.53;5101959;28;20023;-85
2023/05/16 10:36:44;;;;;;;12.20;4.47;;;;;;;-140.66;100.00;55571.53;5104318;28;20444;-83
2023/05/16 10:39:31;;;;;;;10.75;4.10;;;;;;;-140.66;100.00;55571.53;5117774;28;20038;-81
2023/05/16 10:42:18;;;;;;;17.95;5.10;;;;;;;-140.66;100.00;55571.53;5101725;28;20514;-82
2023/05/16 10:45:20;;;;;;;16.15;4.65;;;;;;;-140.66;100.00;55571.53;5128735;27;20072;-82
2023/05/16 10:48:08;;;;;;;11.48;4.82;;;;;;;-140.66;100.00;55571.53;5116578;28;20359;-84
2023/05/16 10:50:54;;;;;;;15.93;4.70;;;;;;;-140.66;100.00;55571.53;5100621;28;20027;-83
2023/05/16 10:53:40;;;;;;;16.88;4.38;;;;;;;-140.66;100.00;55571.53;5100939;28;20039;-83
2023/05/16 10:56:27;;;;;;;10.15;4.32;;;;;;;-140.66;100.00;55571.53;5100949;28;20028;-84
2023/05/16 10:59:24;;;;;;;11.10;4.22;;;;;;;-140.66;100.00;55571.53;5116014;28;20031;-84
2023/05/16 11:02:36;;;;;;;15.02;4.70;;;;;;;-140.66;100.00;55571.53;5129189;27;20099;-84
2023/05/16 11:05:26;;;;;;;9.75;4.00;;;;;;;-140.66;100.00;55571.53;5129058;27;20432;-83
2023/05/16 11:08:13;;;;;;;12.45;5.00;;;;;;;-140.66;100.00;55571.53;5100986;28;20041;-83
2023/05/16 11:11:36;;;;;;;8.95;4.95;;;;;;;-140.66;100.00;55571.53;5115927;28;20019;-83
2023/05/16 11:14:24;;;;;;;9.48;4.55;;;;;;;-140.66;100.00;55571.53;5115917;28;20412;-83
2023/05/16 11:17:19;;;;;;;8.85;4.57;;;;;;;-140.66;100.00;55571.53;5102327;28;20020;-84
2023/05/16 11:20:06;;;;;;;16.33;4.35;;;;;;;-140.66;100.00;55571.53;5104112;28;20467;-83
2023/05/16 11:23:18;;;;;;;14.30;4.20;;;;;;;-140.66;100.00;55571.53;5129917;27;20027;-84
2023/05/16 11:26:04;;;;;;;10.57;4.18;;;;;;;-140.66;100.00;55571.53;5101781;28;20031;-84
2023/05/16 11:28:52;;;;;;;8.98;4.38;;;;;;;-140.66;100.00;55571.53;5116349;28;20047;-84
2023/05/16 11:31:39;;;;;;;12.25;4.20;;;;;;;-140.66;100.00;55571.53;5129334;27;20031;-84
2023/05/16 11:34:26;;;;;;;15.38;4.50;;;;;;;-140.66;100.00;55571.53;5100177;28;20122;-81
2023/05/16 11:37:14;;;;;;;13.38;4.93;;;;;;;-140.66;100.00;55571.53;5116088;28;20028;-79
2023/05/16 11:40:00;;;;;;;11.93;4.70;;;;;;;-140.66;100.00;55571.53;5099937;28;20031;-77
2023/05/16 11:42:47;;;;;;;13.68;4.40;;;;;;;-140.66;100.00;55571.53;5115112;28;20028;-78
2023/05/16 11:45:33;;;;;;;12.48;4.25;;;;;;;-140.66;100.00;55571.53;5115456;28;20028;-77
2023/05/16 11:48:18;;;;;;;18.80;4.75;;;;;;;-140.66;100.00;55571.53;5114790;28;20088;-77
2023/05/16 11:51:05;;;;;;;11.02;4.07;;;;;;;-140.66;100.00;55571.53;5114206;28;20042;-77
2023/05/16 11:53:51;;;;;;;9.60;3.70;;;;;;;-140.66;100.00;55571.53;5128758;28;20024;-77
2023/05/16 11:56:36;;;;;;;16.30;4.53;;;;;;;-140.66;100.00;55571.53;5117791;28;20027;-75
2023/05/16 11:59:24;;;;;;;16.08;4.57;;;;;;;-140.66;100.00;55571.53;5117298;28;20027;-74
2023/05/16 12:02:09;;;;;;;17.65;4.13;;;;;;;-140.66;100.00;55571.53;5115250;28;20077;-72
2023/05/16 12:04:55;;;;;;;14.07;4.22;;;;;;;-140.66;100.00;55571.53;5118126;28;20059;-71
2023/05/16 12:07:45;;;;;;;29.52;4.85;;;;;;;-140.66;100.00;55571.53;5118459;28;20043;-73
2023/05/16 12:10:34;;;;;;;25.42;4.57;;;;;;;-140.66;100.00;55571.53;5116392;28;20051;-72
2023/05/16 12:13:26;;;;;;;16.25;4.22;;;;;;;-140.66;100.00;55571.53;5118722;28;20016;-72
2023/05/16 12:16:12;;;;;;;10.20;4.00;;;;;;;-140.66;100.00;55571.53;5131562;28;20088;-73
2023/05/16 12:18:58;;;;;;;13.93;3.53;;;;;;;-140.66;100.00;55571.53;5118760;28;20031;-71
2023/05/16 12:21:50;;;;;;;15.13;4.10;;;;;;;-140.66;100.00;55571.53;5117703;28;20042;-72
2023/05/16 12:24:39;;;;;;;15.85;4.35;;;;;;;-140.66;100.00;55571.53;5113235;28;20365;-72
2023/05/16 12:27:26;;;;;;;17.13;4.65;;;;;;;-140.66;100.00;55571.53;5133598;27;20463;-80
2023/05/16 12:30:26;;;;;;;15.52;4.40;;;;;;;-140.66;100.00;55571.53;5127163;28;20106;-75
2023/05/16 12:33:22;;;;;;;18.02;4.07;;;;;;;-140.66;100.00;55571.53;5118230;28;20045;-79
2023/05/16 12:36:13;;;;;;;16.60;4.57;;;;;;;-140.66;100.00;55571.53;5151093;27;20024;-80